sensor_id;sensor_type;location;lat;lon;timestamp;temperature;humidity
7658;DHT22;8462;53.156;8.220;2023-12-04T00:01:14;2.50;99.90
7658;DHT22;8462;53.156;8.220;2023-12-04T00:03:41;2.50;99.90
7658;DHT22;8462;53.156;8.220;2023-12-04T00:06:09;2.40;99.90
7658;DHT22;8462;53.156;8.220;2023-12-04T00:08:38;2.40;99.90
7658;DHT22;8462;53.156;8.220;2023-12-04T00:11:08;2.40;99.90
7658;DHT22;8462;53.156;8.220;2023-12-04T00:13:36;2.40;99.90
7658;DHT22;8462;53.156;8.220;2023-12-04T00:16:04;2.40;99.90
7658;DHT22;8462;53.156;8.220;2023-12-04T00:18:37;2.40;99.90
7658;DHT22;8462;53.156;8.220;2023-12-04T00:21:05;2.50;99.90
7658;DHT22;8462;53.156;8.220;2023-12-04T00:23:32;2.50;99.90
7658;DHT22;8462;53.156;8.220;2023-12-04T00:26:01;2.50;99.90
7658;DHT22;8462;53.156;8.220;2023-12-04T00:28:29;2.50;99.90
7658;DHT22;8462;53.156;8.220;2023-12-04T00:30:56;2.50;99.90
7658;DHT22;8462;53.156;8.220;2023-12-04T00:33:23;2.50;99.90
7658;DHT22;8462;53.156;8.220;2023-12-04T00:35:50;2.40;99.90
7658;DHT22;8462;53.156;8.220;2023-12-04T00:38:17;2.40;99.90
7658;DHT22;8462;53.156;8.220;2023-12-04T00:40:44;2.40;99.90
7658;DHT22;8462;53.156;8.220;2023-12-04T00:43:12;2.40;99.90
7658;DHT22;8462;53.156;8.220;2023-12-04T00:45:39;2.40;99.90
7658;DHT22;8462;53.156;8.220;2023-12-04T00:48:06;2.40;99.90
7658;DHT22;8462;53.156;8.220;2023-12-04T00:50:33;2.40;99.90
7658;DHT22;8462;53.156;8.220;2023-12-04T00:53:00;2.40;99.90
7658;DHT22;8462;53.156;8.220;2023-12-04T00:55:29;2.40;99.90
7658;DHT22;8462;53.156;8.220;2023-12-04T00:57:56;2.40;99.90
7658;DHT22;8462;53.156;8.220;2023-12-04T01:00:26;2.40;99.90
7658;DHT22;8462;53.156;8.220;2023-12-04T01:02:53;2.40;99.90
7658;DHT22;8462;53.156;8.220;2023-12-04T01:05:20;2.40;99.90
7658;DHT22;8462;53.156;8.220;2023-12-04T01:07:47;2.50;99.90
7658;DHT22;8462;53.156;8.220;2023-12-04T01:10:14;2.50;99.90
7658;DHT22;8462;53.156;8.220;2023-12-04T01:12:41;2.50;99.90
7658;DHT22;8462;53.156;8.220;2023-12-04T01:15:08;2.50;99.90
7658;DHT22;8462;53.156;8.220;2023-12-04T01:17:37;2.50;99.90
7658;DHT22;8462;53.156;8.220;2023-12-04T01:20:05;2.50;99.90
7658;DHT22;8462;53.156;8.220;2023-12-04T01:22:32;2.60;99.90
7658;DHT22;8462;53.156;8.220;2023-12-04T01:24:59;2.60;99.90
7658;DHT22;8462;53.156;8.220;2023-12-04T01:27:26;2.60;99.90
7658;DHT22;8462;53.156;8.220;2023-12-04T01:29:53;2.60;99.90
7658;DHT22;8462;53.156;8.220;2023-12-04T01:32:20;2.60;99.90
7658;DHT22;8462;53.156;8.220;2023-12-04T01:34:48;2.60;99.90
7658;DHT22;8462;53.156;8.220;2023-12-04T01:37:15;2.60;99.90
7658;DHT22;8462;53.156;8.220;2023-12-04T01:39:44;2.60;99.90
7658;DHT22;8462;53.156;8.220;2023-12-04T01:42:11;2.60;99.90
7658;DHT22;8462;53.156;8.220;2023-12-04T01:44:40;2.60;99.90
7658;DHT22;8462;53.156;8.220;2023-12-04T01:47:07;2.60;99.90
7658;DHT22;8462;53.156;8.220;2023-12-04T01:49:34;2.50;99.90
7658;DHT22;8462;53.156;8.220;2023-12-04T01:52:04;2.50;99.90
7658;DHT22;8462;53.156;8.220;2023-12-04T01:54:31;2.60;99.90
7658;DHT22;8462;53.156;8.220;2023-12-04T01:56:59;2.60;99.90
7658;DHT22;8462;53.156;8.220;2023-12-04T01:59:26;2.60;99.90
7658;DHT22;8462;53.156;8.220;2023-12-04T02:01:53;2.60;99.90
7658;DHT22;8462;53.156;8.220;2023-12-04T02:04:20;2.60;99.90
7658;DHT22;8462;53.156;8.220;2023-12-04T02:06:47;2.60;99.90
7658;DHT22;8462;53.156;8.220;2023-12-04T02:09:16;2.60;99.90
7658;DHT22;8462;53.156;8.220;2023-12-04T02:11:44;2.60;99.90
7658;DHT22;8462;53.156;8.220;2023-12-04T02:14:11;2.60;99.90
7658;DHT22;8462;53.156;8.220;2023-12-04T02:16:40;2.60;99.90
7658;DHT22;8462;53.156;8.220;2023-12-04T02:19:11;2.60;99.90
7658;DHT22;8462;53.156;8.220;2023-12-04T02:21:38;2.60;99.90
7658;DHT22;8462;53.156;8.220;2023-12-04T02:24:06;2.60;99.90
7658;DHT22;8462;53.156;8.220;2023-12-04T02:26:44;2.70;99.90
7658;DHT22;8462;53.156;8.220;2023-12-04T02:29:18;2.60;99.90
7658;DHT22;8462;53.156;8.220;2023-12-04T02:31:50;2.60;99.90
7658;DHT22;8462;53.156;8.220;2023-12-04T02:34:18;2.60;99.90
7658;DHT22;8462;53.156;8.220;2023-12-04T02:36:45;2.60;99.90
7658;DHT22;8462;53.156;8.220;2023-12-04T02:39:14;2.60;99.90
7658;DHT22;8462;53.156;8.220;2023-12-04T02:41:41;2.60;99.90
7658;DHT22;8462;53.156;8.220;2023-12-04T02:44:08;2.60;99.90
7658;DHT22;8462;53.156;8.220;2023-12-04T02:46:36;2.60;99.90
7658;DHT22;8462;53.156;8.220;2023-12-04T02:49:03;2.60;99.90
7658;DHT22;8462;53.156;8.220;2023-12-04T02:51:30;2.60;99.90
7658;DHT22;8462;53.156;8.220;2023-12-04T02:53:58;2.60;99.90
7658;DHT22;8462;53.156;8.220;2023-12-04T02:56:26;2.60;99.90
7658;DHT22;8462;53.156;8.220;2023-12-04T02:58:53;2.60;99.90
7658;DHT22;8462;53.156;8.220;2023-12-04T03:01:20;2.60;99.90
7658;DHT22;8462;53.156;8.220;2023-12-04T03:03:47;2.60;99.90
7658;DHT22;8462;53.156;8.220;2023-12-04T03:06:15;2.60;99.90
7658;DHT22;8462;53.156;8.220;2023-12-04T03:08:43;2.60;99.90
7658;DHT22;8462;53.156;8.220;2023-12-04T03:11:09;2.60;99.90
7658;DHT22;8462;53.156;8.220;2023-12-04T03:13:38;2.60;99.90
7658;DHT22;8462;53.156;8.220;2023-12-04T03:16:05;2.60;99.90
7658;DHT22;8462;53.156;8.220;2023-12-04T03:18:32;2.60;99.90
7658;DHT22;8462;53.156;8.220;2023-12-04T03:20:59;2.60;99.90
7658;DHT22;8462;53.156;8.220;2023-12-04T03:23:26;2.60;99.90
7658;DHT22;8462;53.156;8.220;2023-12-04T03:25:53;2.60;99.90
7658;DHT22;8462;53.156;8.220;2023-12-04T03:28:20;2.70;99.90
7658;DHT22;8462;53.156;8.220;2023-12-04T03:30:48;2.70;99.90
7658;DHT22;8462;53.156;8.220;2023-12-04T03:33:15;2.60;99.90
7658;DHT22;8462;53.156;8.220;2023-12-04T03:35:42;2.60;99.90
7658;DHT22;8462;53.156;8.220;2023-12-04T03:38:09;2.60;99.90
7658;DHT22;8462;53.156;8.220;2023-12-04T03:40:36;2.60;99.90
7658;DHT22;8462;53.156;8.220;2023-12-04T03:43:03;2.70;99.90
7658;DHT22;8462;53.156;8.220;2023-12-04T03:45:31;2.60;99.90
7658;DHT22;8462;53.156;8.220;2023-12-04T03:47:59;2.60;99.90
7658;DHT22;8462;53.156;8.220;2023-12-04T03:50:26;2.60;99.90
7658;DHT22;8462;53.156;8.220;2023-12-04T03:52:53;2.60;99.90
7658;DHT22;8462;53.156;8.220;2023-12-04T03:55:20;2.60;99.90
7658;DHT22;8462;53.156;8.220;2023-12-04T03:57:47;2.60;99.90
7658;DHT22;8462;53.156;8.220;2023-12-04T04:00:14;2.60;99.90
7658;DHT22;8462;53.156;8.220;2023-12-04T04:02:43;2.60;99.90
7658;DHT22;8462;53.156;8.220;2023-12-04T04:05:11;2.60;99.90
7658;DHT22;8462;53.156;8.220;2023-12-04T04:07:39;2.60;99.90
7658;DHT22;8462;53.156;8.220;2023-12-04T04:10:07;2.60;99.90
7658;DHT22;8462;53.156;8.220;2023-12-04T04:12:34;2.60;99.90
7658;DHT22;8462;53.156;8.220;2023-12-04T04:15:01;2.70;99.90
7658;DHT22;8462;53.156;8.220;2023-12-04T04:17:30;2.60;99.90
7658;DHT22;8462;53.156;8.220;2023-12-04T04:19:59;2.60;99.90
7658;DHT22;8462;53.156;8.220;2023-12-04T04:22:27;2.60;99.90
7658;DHT22;8462;53.156;8.220;2023-12-04T04:24:55;2.60;99.90
7658;DHT22;8462;53.156;8.220;2023-12-04T04:27:22;2.60;99.90
7658;DHT22;8462;53.156;8.220;2023-12-04T04:29:50;2.60;99.90
7658;DHT22;8462;53.156;8.220;2023-12-04T04:32:17;2.70;99.90
7658;DHT22;8462;53.156;8.220;2023-12-04T04:34:45;2.70;99.90
7658;DHT22;8462;53.156;8.220;2023-12-04T04:37:14;2.70;99.90
7658;DHT22;8462;53.156;8.220;2023-12-04T04:39:43;2.70;99.90
7658;DHT22;8462;53.156;8.220;2023-12-04T04:42:10;2.70;99.90
7658;DHT22;8462;53.156;8.220;2023-12-04T04:44:37;2.70;99.90
7658;DHT22;8462;53.156;8.220;2023-12-04T04:47:04;2.70;99.90
7658;DHT22;8462;53.156;8.220;2023-12-04T04:49:31;2.70;99.90
7658;DHT22;8462;53.156;8.220;2023-12-04T04:51:58;2.70;99.90
7658;DHT22;8462;53.156;8.220;2023-12-04T04:54:26;2.70;99.90
7658;DHT22;8462;53.156;8.220;2023-12-04T04:56:54;2.70;99.90
7658;DHT22;8462;53.156;8.220;2023-12-04T04:59:21;2.70;99.90
7658;DHT22;8462;53.156;8.220;2023-12-04T05:01:49;2.70;99.90
7658;DHT22;8462;53.156;8.220;2023-12-04T05:04:20;2.70;99.90
7658;DHT22;8462;53.156;8.220;2023-12-04T05:06:47;2.70;99.90
7658;DHT22;8462;53.156;8.220;2023-12-04T05:09:15;2.80;99.90
7658;DHT22;8462;53.156;8.220;2023-12-04T05:11:42;2.70;99.90
7658;DHT22;8462;53.156;8.220;2023-12-04T05:14:11;2.80;99.90
7658;DHT22;8462;53.156;8.220;2023-12-04T05:16:38;2.80;99.90
7658;DHT22;8462;53.156;8.220;2023-12-04T05:19:05;2.80;99.90
7658;DHT22;8462;53.156;8.220;2023-12-04T05:21:32;2.80;99.90
7658;DHT22;8462;53.156;8.220;2023-12-04T05:23:59;2.80;99.90
7658;DHT22;8462;53.156;8.220;2023-12-04T05:26:26;2.80;99.90
7658;DHT22;8462;53.156;8.220;2023-12-04T05:28:53;2.80;99.90
7658;DHT22;8462;53.156;8.220;2023-12-04T05:31:22;2.90;99.90
7658;DHT22;8462;53.156;8.220;2023-12-04T05:33:49;2.90;99.90
7658;DHT22;8462;53.156;8.220;2023-12-04T05:36:15;2.90;99.90
7658;DHT22;8462;53.156;8.220;2023-12-04T05:38:42;2.90;99.90
7658;DHT22;8462;53.156;8.220;2023-12-04T05:41:09;2.90;99.90
7658;DHT22;8462;53.156;8.220;2023-12-04T05:43:36;2.90;99.90
7658;DHT22;8462;53.156;8.220;2023-12-04T05:46:04;2.90;99.90
7658;DHT22;8462;53.156;8.220;2023-12-04T05:48:32;2.90;99.90
7658;DHT22;8462;53.156;8.220;2023-12-04T05:51:05;2.90;99.90
7658;DHT22;8462;53.156;8.220;2023-12-04T05:53:32;2.90;99.90
7658;DHT22;8462;53.156;8.220;2023-12-04T05:55:59;2.90;99.90
7658;DHT22;8462;53.156;8.220;2023-12-04T05:58:26;2.90;99.90
7658;DHT22;8462;53.156;8.220;2023-12-04T06:00:53;2.90;99.90
7658;DHT22;8462;53.156;8.220;2023-12-04T06:03:20;3.00;99.90
7658;DHT22;8462;53.156;8.220;2023-12-04T06:05:48;2.90;99.90
7658;DHT22;8462;53.156;8.220;2023-12-04T06:08:15;3.00;99.90
7658;DHT22;8462;53.156;8.220;2023-12-04T06:10:42;3.00;99.90
7658;DHT22;8462;53.156;8.220;2023-12-04T06:13:09;3.00;99.90
7658;DHT22;8462;53.156;8.220;2023-12-04T06:15:36;3.00;99.90
7658;DHT22;8462;53.156;8.220;2023-12-04T06:18:03;3.00;99.90
7658;DHT22;8462;53.156;8.220;2023-12-04T06:20:31;3.00;99.90
7658;DHT22;8462;53.156;8.220;2023-12-04T06:23:02;3.10;99.90
7658;DHT22;8462;53.156;8.220;2023-12-04T06:25:29;3.20;99.90
7658;DHT22;8462;53.156;8.220;2023-12-04T06:27:57;3.20;99.90
7658;DHT22;8462;53.156;8.220;2023-12-04T06:30:26;3.20;99.90
7658;DHT22;8462;53.156;8.220;2023-12-04T06:32:53;3.10;99.90
7658;DHT22;8462;53.156;8.220;2023-12-04T06:35:22;3.20;99.90
7658;DHT22;8462;53.156;8.220;2023-12-04T06:37:49;3.20;99.90
7658;DHT22;8462;53.156;8.220;2023-12-04T06:40:21;3.20;99.90
7658;DHT22;8462;53.156;8.220;2023-12-04T06:42:48;3.20;99.90
7658;DHT22;8462;53.156;8.220;2023-12-04T06:45:16;3.20;99.90
7658;DHT22;8462;53.156;8.220;2023-12-04T06:47:46;3.20;99.90
7658;DHT22;8462;53.156;8.220;2023-12-04T06:50:16;3.20;99.90
7658;DHT22;8462;53.156;8.220;2023-12-04T06:52:44;3.20;99.90
7658;DHT22;8462;53.156;8.220;2023-12-04T06:55:12;3.20;99.90
7658;DHT22;8462;53.156;8.220;2023-12-04T06:57:41;3.20;99.90
7658;DHT22;8462;53.156;8.220;2023-12-04T07:00:08;3.30;99.90
7658;DHT22;8462;53.156;8.220;2023-12-04T07:02:41;3.20;99.90
7658;DHT22;8462;53.156;8.220;2023-12-04T07:05:08;3.20;99.90
7658;DHT22;8462;53.156;8.220;2023-12-04T07:07:35;3.20;99.90
7658;DHT22;8462;53.156;8.220;2023-12-04T07:10:06;3.20;99.90
7658;DHT22;8462;53.156;8.220;2023-12-04T07:12:33;3.10;99.90
7658;DHT22;8462;53.156;8.220;2023-12-04T07:15:03;3.10;99.90
7658;DHT22;8462;53.156;8.220;2023-12-04T07:17:30;3.10;99.90
7658;DHT22;8462;53.156;8.220;2023-12-04T07:19:57;3.20;99.90
7658;DHT22;8462;53.156;8.220;2023-12-04T07:22:24;3.20;99.90
7658;DHT22;8462;53.156;8.220;2023-12-04T07:24:51;3.20;99.90
7658;DHT22;8462;53.156;8.220;2023-12-04T07:27:18;3.20;99.90
7658;DHT22;8462;53.156;8.220;2023-12-04T07:29:45;3.20;99.90
7658;DHT22;8462;53.156;8.220;2023-12-04T07:32:13;3.20;99.90
7658;DHT22;8462;53.156;8.220;2023-12-04T07:34:40;3.20;99.90
7658;DHT22;8462;53.156;8.220;2023-12-04T07:37:07;3.20;99.90
7658;DHT22;8462;53.156;8.220;2023-12-04T07:39:34;3.20;99.90
7658;DHT22;8462;53.156;8.220;2023-12-04T07:42:07;3.30;99.90
7658;DHT22;8462;53.156;8.220;2023-12-04T07:44:36;3.30;99.90
7658;DHT22;8462;53.156;8.220;2023-12-04T07:47:03;3.30;99.90
7658;DHT22;8462;53.156;8.220;2023-12-04T07:49:38;3.30;99.90
7658;DHT22;8462;53.156;8.220;2023-12-04T07:52:07;3.30;99.90
7658;DHT22;8462;53.156;8.220;2023-12-04T07:54:36;3.40;99.90
7658;DHT22;8462;53.156;8.220;2023-12-04T07:57:03;3.40;99.90
7658;DHT22;8462;53.156;8.220;2023-12-04T07:59:30;3.40;99.90
7658;DHT22;8462;53.156;8.220;2023-12-04T08:01:58;3.40;99.90
7658;DHT22;8462;53.156;8.220;2023-12-04T08:04:26;3.40;99.90
7658;DHT22;8462;53.156;8.220;2023-12-04T08:06:55;3.50;99.90
7658;DHT22;8462;53.156;8.220;2023-12-04T08:09:23;3.50;99.90
7658;DHT22;8462;53.156;8.220;2023-12-04T08:11:50;3.50;99.90
7658;DHT22;8462;53.156;8.220;2023-12-04T08:14:22;3.50;99.90
7658;DHT22;8462;53.156;8.220;2023-12-04T08:16:51;3.50;99.90
7658;DHT22;8462;53.156;8.220;2023-12-04T08:19:19;3.50;99.90
7658;DHT22;8462;53.156;8.220;2023-12-04T08:21:48;3.50;99.90
7658;DHT22;8462;53.156;8.220;2023-12-04T08:24:17;3.50;99.90
7658;DHT22;8462;53.156;8.220;2023-12-04T08:26:44;3.40;99.90
7658;DHT22;8462;53.156;8.220;2023-12-04T08:29:12;3.40;99.90
7658;DHT22;8462;53.156;8.220;2023-12-04T08:31:41;3.40;99.90
7658;DHT22;8462;53.156;8.220;2023-12-04T08:34:09;3.40;99.90
7658;DHT22;8462;53.156;8.220;2023-12-04T08:36:36;3.40;99.90
7658;DHT22;8462;53.156;8.220;2023-12-04T08:39:03;3.40;99.90
7658;DHT22;8462;53.156;8.220;2023-12-04T08:41:32;3.50;99.90
7658;DHT22;8462;53.156;8.220;2023-12-04T08:43:59;3.60;99.90
7658;DHT22;8462;53.156;8.220;2023-12-04T08:46:26;3.60;99.90
7658;DHT22;8462;53.156;8.220;2023-12-04T08:48:54;3.70;99.90
7658;DHT22;8462;53.156;8.220;2023-12-04T08:51:22;3.70;99.90
7658;DHT22;8462;53.156;8.220;2023-12-04T08:53:52;3.70;99.90
7658;DHT22;8462;53.156;8.220;2023-12-04T08:56:21;3.80;99.90
7658;DHT22;8462;53.156;8.220;2023-12-04T08:58:49;3.80;99.90
7658;DHT22;8462;53.156;8.220;2023-12-04T09:01:19;3.90;99.90
7658;DHT22;8462;53.156;8.220;2023-12-04T09:03:46;3.90;99.90
7658;DHT22;8462;53.156;8.220;2023-12-04T09:06:13;3.80;99.90
7658;DHT22;8462;53.156;8.220;2023-12-04T09:08:42;3.90;99.90
7658;DHT22;8462;53.156;8.220;2023-12-04T09:11:09;3.90;99.90
7658;DHT22;8462;53.156;8.220;2023-12-04T09:13:37;4.00;99.90
7658;DHT22;8462;53.156;8.220;2023-12-04T09:16:08;3.90;99.90
7658;DHT22;8462;53.156;8.220;2023-12-04T09:18:37;4.00;99.90
7658;DHT22;8462;53.156;8.220;2023-12-04T09:21:04;4.00;99.90
7658;DHT22;8462;53.156;8.220;2023-12-04T09:23:32;4.00;99.90
7658;DHT22;8462;53.156;8.220;2023-12-04T09:26:01;3.90;99.90
7658;DHT22;8462;53.156;8.220;2023-12-04T09:28:29;3.90;99.90
7658;DHT22;8462;53.156;8.220;2023-12-04T09:30:56;3.80;99.90
7658;DHT22;8462;53.156;8.220;2023-12-04T09:33:24;3.80;99.90
7658;DHT22;8462;53.156;8.220;2023-12-04T09:35:52;3.90;99.90
7658;DHT22;8462;53.156;8.220;2023-12-04T09:38:19;3.80;99.90
7658;DHT22;8462;53.156;8.220;2023-12-04T09:40:47;3.90;99.90
7658;DHT22;8462;53.156;8.220;2023-12-04T09:43:15;3.90;99.90
7658;DHT22;8462;53.156;8.220;2023-12-04T09:45:42;3.90;99.90
7658;DHT22;8462;53.156;8.220;2023-12-04T09:48:09;3.90;99.90
7658;DHT22;8462;53.156;8.220;2023-12-04T09:50:38;3.90;99.90
7658;DHT22;8462;53.156;8.220;2023-12-04T09:53:08;3.90;99.90
7658;DHT22;8462;53.156;8.220;2023-12-04T09:55:37;3.90;99.90
7658;DHT22;8462;53.156;8.220;2023-12-04T09:58:06;3.90;99.90
7658;DHT22;8462;53.156;8.220;2023-12-04T10:00:33;3.90;99.90
7658;DHT22;8462;53.156;8.220;2023-12-04T10:03:01;3.90;99.90
7658;DHT22;8462;53.156;8.220;2023-12-04T10:05:29;3.90;99.90
7658;DHT22;8462;53.156;8.220;2023-12-04T10:07:58;4.00;99.90
7658;DHT22;8462;53.156;8.220;2023-12-04T10:10:25;4.00;99.90
7658;DHT22;8462;53.156;8.220;2023-12-04T10:12:52;4.00;99.90
7658;DHT22;8462;53.156;8.220;2023-12-04T10:15:19;4.10;99.90
7658;DHT22;8462;53.156;8.220;2023-12-04T10:17:48;4.10;99.90
7658;DHT22;8462;53.156;8.220;2023-12-04T10:20:16;4.20;99.90
7658;DHT22;8462;53.156;8.220;2023-12-04T10:22:54;4.30;99.90
7658;DHT22;8462;53.156;8.220;2023-12-04T10:25:24;4.20;99.90
7658;DHT22;8462;53.156;8.220;2023-12-04T10:27:52;4.20;99.90
7658;DHT22;8462;53.156;8.220;2023-12-04T10:30:24;4.20;99.90
7658;DHT22;8462;53.156;8.220;2023-12-04T10:32:55;4.30;99.90
7658;DHT22;8462;53.156;8.220;2023-12-04T10:35:28;4.30;99.90
7658;DHT22;8462;53.156;8.220;2023-12-04T10:37:56;4.40;99.90
7658;DHT22;8462;53.156;8.220;2023-12-04T10:40:25;4.40;99.90
7658;DHT22;8462;53.156;8.220;2023-12-04T10:43:15;4.40;99.90
7658;DHT22;8462;53.156;8.220;2023-12-04T10:45:43;4.40;99.90
7658;DHT22;8462;53.156;8.220;2023-12-04T10:48:12;4.50;99.90
7658;DHT22;8462;53.156;8.220;2023-12-04T10:50:41;4.50;99.90
7658;DHT22;8462;53.156;8.220;2023-12-04T10:53:09;4.50;99.90
7658;DHT22;8462;53.156;8.220;2023-12-04T10:55:38;4.50;99.90
7658;DHT22;8462;53.156;8.220;2023-12-04T10:58:06;4.50;99.90
7658;DHT22;8462;53.156;8.220;2023-12-04T11:00:36;4.60;99.90
7658;DHT22;8462;53.156;8.220;2023-12-04T11:03:08;4.60;99.90
7658;DHT22;8462;53.156;8.220;2023-12-04T11:05:37;4.70;99.90
7658;DHT22;8462;53.156;8.220;2023-12-04T11:08:07;4.70;99.90
7658;DHT22;8462;53.156;8.220;2023-12-04T11:10:41;4.60;99.90
7658;DHT22;8462;53.156;8.220;2023-12-04T11:13:15;4.60;99.90
7658;DHT22;8462;53.156;8.220;2023-12-04T11:15:48;4.50;99.90
7658;DHT22;8462;53.156;8.220;2023-12-04T11:18:23;4.50;99.90
7658;DHT22;8462;53.156;8.220;2023-12-04T11:20:53;4.50;99.90
7658;DHT22;8462;53.156;8.220;2023-12-04T11:23:23;4.40;99.90
7658;DHT22;8462;53.156;8.220;2023-12-04T11:25:53;4.40;99.90
7658;DHT22;8462;53.156;8.220;2023-12-04T11:28:21;4.40;99.90
7658;DHT22;8462;53.156;8.220;2023-12-04T11:30:48;4.40;99.90
7658;DHT22;8462;53.156;8.220;2023-12-04T11:33:16;4.50;99.90
7658;DHT22;8462;53.156;8.220;2023-12-04T11:35:44;4.60;99.90
7658;DHT22;8462;53.156;8.220;2023-12-04T11:38:13;4.70;99.90
7658;DHT22;8462;53.156;8.220;2023-12-04T11:40:41;4.70;99.90
7658;DHT22;8462;53.156;8.220;2023-12-04T11:43:24;4.80;99.30
7658;DHT22;8462;53.156;8.220;2023-12-04T11:45:52;4.80;99.80
7658;DHT22;8462;53.156;8.220;2023-12-04T11:48:26;4.80;99.60
7658;DHT22;8462;53.156;8.220;2023-12-04T11:50:56;4.80;99.50
7658;DHT22;8462;53.156;8.220;2023-12-04T11:53:24;4.80;99.20
7658;DHT22;8462;53.156;8.220;2023-12-04T11:55:55;4.90;99.10
7658;DHT22;8462;53.156;8.220;2023-12-04T11:58:24;4.90;99.00
7658;DHT22;8462;53.156;8.220;2023-12-04T12:00:52;4.90;99.00
7658;DHT22;8462;53.156;8.220;2023-12-04T12:03:21;4.90;99.10
7658;DHT22;8462;53.156;8.220;2023-12-04T12:05:49;4.90;99.20
7658;DHT22;8462;53.156;8.220;2023-12-04T12:08:16;4.80;99.00
7658;DHT22;8462;53.156;8.220;2023-12-04T12:10:45;4.80;99.30
7658;DHT22;8462;53.156;8.220;2023-12-04T12:13:13;4.80;99.10
7658;DHT22;8462;53.156;8.220;2023-12-04T12:15:41;4.80;98.90
7658;DHT22;8462;53.156;8.220;2023-12-04T12:18:09;4.80;98.90
7658;DHT22;8462;53.156;8.220;2023-12-04T12:20:37;4.80;99.10
7658;DHT22;8462;53.156;8.220;2023-12-04T12:23:04;4.80;99.50
7658;DHT22;8462;53.156;8.220;2023-12-04T12:25:31;4.80;98.90
7658;DHT22;8462;53.156;8.220;2023-12-04T12:28:02;4.80;99.40
7658;DHT22;8462;53.156;8.220;2023-12-04T12:30:29;4.80;99.10
7658;DHT22;8462;53.156;8.220;2023-12-04T12:32:57;4.80;99.00
7658;DHT22;8462;53.156;8.220;2023-12-04T12:35:24;4.80;99.10
7658;DHT22;8462;53.156;8.220;2023-12-04T12:37:51;4.80;99.10
7658;DHT22;8462;53.156;8.220;2023-12-04T12:40:20;4.80;98.70
7658;DHT22;8462;53.156;8.220;2023-12-04T12:42:47;4.80;99.10
7658;DHT22;8462;53.156;8.220;2023-12-04T12:45:16;4.80;99.10
7658;DHT22;8462;53.156;8.220;2023-12-04T12:47:45;4.80;98.90
7658;DHT22;8462;53.156;8.220;2023-12-04T12:50:15;4.80;98.70
7658;DHT22;8462;53.156;8.220;2023-12-04T12:52:43;4.90;98.70
7658;DHT22;8462;53.156;8.220;2023-12-04T12:55:10;4.90;98.50
7658;DHT22;8462;53.156;8.220;2023-12-04T12:57:37;4.80;98.60
7658;DHT22;8462;53.156;8.220;2023-12-04T13:00:07;4.80;98.80
7658;DHT22;8462;53.156;8.220;2023-12-04T13:02:35;4.80;98.70
7658;DHT22;8462;53.156;8.220;2023-12-04T13:05:03;4.80;98.50
7658;DHT22;8462;53.156;8.220;2023-12-04T13:07:32;4.80;98.50
7658;DHT22;8462;53.156;8.220;2023-12-04T13:10:00;4.80;98.30
7658;DHT22;8462;53.156;8.220;2023-12-04T13:12:28;4.70;98.10
7658;DHT22;8462;53.156;8.220;2023-12-04T13:14:57;4.60;98.10
7658;DHT22;8462;53.156;8.220;2023-12-04T13:17:24;4.60;98.30
7658;DHT22;8462;53.156;8.220;2023-12-04T13:19:51;4.60;98.50
7658;DHT22;8462;53.156;8.220;2023-12-04T13:22:18;4.60;98.30
7658;DHT22;8462;53.156;8.220;2023-12-04T13:24:46;4.60;98.30
7658;DHT22;8462;53.156;8.220;2023-12-04T13:27:13;4.60;98.20
7658;DHT22;8462;53.156;8.220;2023-12-04T13:29:41;4.60;98.30
7658;DHT22;8462;53.156;8.220;2023-12-04T13:32:09;4.50;98.40
7658;DHT22;8462;53.156;8.220;2023-12-04T13:34:36;4.50;98.70
7658;DHT22;8462;53.156;8.220;2023-12-04T13:37:03;4.50;98.70
7658;DHT22;8462;53.156;8.220;2023-12-04T13:39:31;4.50;99.10
7658;DHT22;8462;53.156;8.220;2023-12-04T13:42:15;4.50;98.70
7658;DHT22;8462;53.156;8.220;2023-12-04T13:45:00;4.50;99.20
7658;DHT22;8462;53.156;8.220;2023-12-04T13:47:28;4.50;99.20
7658;DHT22;8462;53.156;8.220;2023-12-04T13:49:56;4.50;99.00
7658;DHT22;8462;53.156;8.220;2023-12-04T13:52:25;4.50;99.40
7658;DHT22;8462;53.156;8.220;2023-12-04T13:54:59;4.40;99.10
7658;DHT22;8462;53.156;8.220;2023-12-04T13:57:29;4.40;99.40
7658;DHT22;8462;53.156;8.220;2023-12-04T13:59:58;4.40;99.50
7658;DHT22;8462;53.156;8.220;2023-12-04T14:02:26;4.40;99.40
7658;DHT22;8462;53.156;8.220;2023-12-04T14:04:55;4.40;99.30
7658;DHT22;8462;53.156;8.220;2023-12-04T14:07:22;4.40;99.40
7658;DHT22;8462;53.156;8.220;2023-12-04T14:09:51;4.30;99.20
7658;DHT22;8462;53.156;8.220;2023-12-04T14:12:20;4.20;99.40
7658;DHT22;8462;53.156;8.220;2023-12-04T14:14:48;4.10;99.60
7658;DHT22;8462;53.156;8.220;2023-12-04T14:17:24;4.10;99.90
7658;DHT22;8462;53.156;8.220;2023-12-04T14:19:51;4.10;99.80
7658;DHT22;8462;53.156;8.220;2023-12-04T14:22:19;4.10;99.90
7658;DHT22;8462;53.156;8.220;2023-12-04T14:24:47;4.10;99.90
7658;DHT22;8462;53.156;8.220;2023-12-04T14:27:15;4.20;99.90
7658;DHT22;8462;53.156;8.220;2023-12-04T14:29:44;4.20;99.40
7658;DHT22;8462;53.156;8.220;2023-12-04T14:32:14;4.10;99.90
7658;DHT22;8462;53.156;8.220;2023-12-04T14:34:41;4.00;99.70
7658;DHT22;8462;53.156;8.220;2023-12-04T14:37:09;4.10;99.50
7658;DHT22;8462;53.156;8.220;2023-12-04T14:39:36;4.00;99.60
7658;DHT22;8462;53.156;8.220;2023-12-04T14:42:03;4.00;99.60
7658;DHT22;8462;53.156;8.220;2023-12-04T14:44:30;4.00;99.80
7658;DHT22;8462;53.156;8.220;2023-12-04T14:46:58;4.00;99.70
7658;DHT22;8462;53.156;8.220;2023-12-04T14:49:27;4.10;99.90
7658;DHT22;8462;53.156;8.220;2023-12-04T14:51:54;4.10;99.70
7658;DHT22;8462;53.156;8.220;2023-12-04T14:54:21;4.00;99.90
7658;DHT22;8462;53.156;8.220;2023-12-04T14:57:03;4.00;99.80
7658;DHT22;8462;53.156;8.220;2023-12-04T14:59:44;4.00;99.80
7658;DHT22;8462;53.156;8.220;2023-12-04T15:02:34;4.00;99.80
7658;DHT22;8462;53.156;8.220;2023-12-04T15:05:34;3.90;99.80
7658;DHT22;8462;53.156;8.220;2023-12-04T15:08:20;3.90;99.50
7658;DHT22;8462;53.156;8.220;2023-12-04T15:11:01;3.80;99.60
7658;DHT22;8462;53.156;8.220;2023-12-04T15:13:50;3.80;99.80
7658;DHT22;8462;53.156;8.220;2023-12-04T15:16:22;3.80;99.70
7658;DHT22;8462;53.156;8.220;2023-12-04T15:19:02;3.80;99.90
7658;DHT22;8462;53.156;8.220;2023-12-04T15:22:00;3.80;99.90
7658;DHT22;8462;53.156;8.220;2023-12-04T15:24:27;3.80;99.90
7658;DHT22;8462;53.156;8.220;2023-12-04T15:26:53;3.80;99.90
7658;DHT22;8462;53.156;8.220;2023-12-04T15:29:20;3.80;99.60
7658;DHT22;8462;53.156;8.220;2023-12-04T15:31:47;3.70;99.80
7658;DHT22;8462;53.156;8.220;2023-12-04T15:34:14;3.80;99.80
7658;DHT22;8462;53.156;8.220;2023-12-04T15:36:40;3.70;99.90
7658;DHT22;8462;53.156;8.220;2023-12-04T15:39:09;3.70;99.90
7658;DHT22;8462;53.156;8.220;2023-12-04T15:41:37;3.70;99.90
7658;DHT22;8462;53.156;8.220;2023-12-04T15:44:04;3.70;99.90
7658;DHT22;8462;53.156;8.220;2023-12-04T15:46:30;3.70;99.90
7658;DHT22;8462;53.156;8.220;2023-12-04T15:48:57;3.60;99.90
7658;DHT22;8462;53.156;8.220;2023-12-04T15:51:24;3.60;99.90
7658;DHT22;8462;53.156;8.220;2023-12-04T15:53:50;3.70;99.90
7658;DHT22;8462;53.156;8.220;2023-12-04T15:56:20;3.70;99.90
7658;DHT22;8462;53.156;8.220;2023-12-04T15:58:47;3.70;99.90
7658;DHT22;8462;53.156;8.220;2023-12-04T16:01:14;3.70;99.90
7658;DHT22;8462;53.156;8.220;2023-12-04T16:03:41;3.80;99.90
7658;DHT22;8462;53.156;8.220;2023-12-04T16:06:09;3.80;99.90
7658;DHT22;8462;53.156;8.220;2023-12-04T16:08:36;3.80;99.90
7658;DHT22;8462;53.156;8.220;2023-12-04T16:11:04;3.90;99.90
7658;DHT22;8462;53.156;8.220;2023-12-04T16:13:33;3.90;99.90
7658;DHT22;8462;53.156;8.220;2023-12-04T16:16:00;3.90;99.90
7658;DHT22;8462;53.156;8.220;2023-12-04T16:18:28;3.90;99.70
7658;DHT22;8462;53.156;8.220;2023-12-04T16:20:56;3.90;99.70
7658;DHT22;8462;53.156;8.220;2023-12-04T16:23:23;3.90;99.60
7658;DHT22;8462;53.156;8.220;2023-12-04T16:25:52;3.80;99.80